Terminal Aerodrome Forecast
Issued by NWS Austin/San Antonio, TX

Home | Current Version | Previous Version | Text Only | Print | Product List | Glossary On
Versions: 1 2 3 4 5 6 7 8 9 10 11 12 13 14 15 16 17 18 19 20
000
FTUS44 KEWX 191300 AAB
TAFDRT
TAF AMD
KDRT 191302Z 1913/2012 13005KT P6SM BKN019
     FM191700 13011KT P6SM SCT050 BKN250
      TEMPO 1922/2002 3SM TSRA BKN040CB
     FM200400 11007KT P6SM BKN040
     FM201000 10007KT P6SM BKN020=

USA.gov is the U.S. government's official web portal to all federal, state and local government web resources and services.